O'Brien, Florida
Current Conditions -  °F | °C
As of 5:35 PM on Sunday 23 Nov 2014 (Local Time) from K24J Reporting Station
Broken Clouds Broken Clouds  
Wind Chill: 77°   Ceiling: 1800
Heat Index: 78°   Visibility: 10mi
Dew Point: 73°   Wind: 9mph
Humidity: 89%   Direction: 190°S
Pressure: 29.86"   Gusts: 18mph
Location:  30.04°N, 82.94°W
Report Text: K24J 232235Z AUTO 19008G16KT 010V020 10SM BKN018 BKN085 25/23 A2986 RMK AO1 LTG DSNT SW AND W
Loading
Personal Weather Stations






























Interactive Weather Map New forecast layout! Learn more

10-Day Weather Forecast

Advertisements
Track Severe Weather on mobile